createdAt,value
2023-06-11T00:00:42.794Z,240.61
2023-06-11T00:01:42.882Z,241.36
2023-06-11T00:02:42.805Z,242.28
2023-06-11T00:03:42.874Z,242.36
2023-06-11T00:04:42.781Z,242.81
2023-06-11T00:05:42.740Z,242.46
2023-06-11T00:06:42.720Z,242.31
2023-06-11T00:07:42.734Z,241.27
2023-06-11T00:08:42.737Z,241.91
2023-06-11T00:09:42.721Z,241.48
2023-06-11T00:10:42.740Z,241.33
2023-06-11T00:11:42.806Z,240.59
2023-06-11T00:12:42.756Z,239.52
2023-06-11T00:13:42.751Z,238.88
2023-06-11T00:14:42.756Z,237.13
2023-06-11T00:15:42.785Z,238.23
2023-06-11T00:16:42.837Z,238.00
2023-06-11T00:17:42.885Z,237.57
2023-06-11T00:18:42.882Z,237.42
2023-06-11T00:19:42.825Z,237.18
2023-06-11T00:20:42.826Z,238.33
2023-06-11T00:21:42.869Z,239.22
2023-06-11T00:22:42.860Z,241.17
2023-06-11T00:23:42.907Z,241.42
2023-06-11T00:24:42.901Z,240.61
2023-06-11T00:25:42.914Z,239.53
2023-06-11T00:26:42.925Z,238.29
2023-06-11T00:27:42.917Z,238.49
2023-06-11T00:28:42.933Z,238.07
2023-06-11T00:29:42.949Z,239.51
2023-06-11T00:30:42.942Z,238.80
2023-06-11T00:31:43.012Z,239.66
2023-06-11T00:32:43.003Z,238.94
2023-06-11T00:33:42.997Z,237.63
2023-06-11T00:34:43.001Z,235.73
2023-06-11T00:35:42.993Z,235.40
2023-06-11T00:36:43.019Z,237.55
2023-06-11T00:37:43.035Z,241.37
2023-06-11T00:38:43.066Z,238.90
2023-06-11T00:39:43.056Z,235.22
2023-06-11T00:40:43.062Z,233.34
2023-06-11T00:41:43.073Z,231.02
2023-06-11T00:42:43.092Z,230.71
2023-06-11T00:43:43.086Z,230.56
2023-06-11T00:44:43.117Z,230.85
2023-06-11T00:45:43.148Z,230.52
2023-06-11T00:46:43.132Z,231.85
2023-06-11T00:47:43.218Z,232.28
2023-06-11T00:48:43.166Z,231.25
2023-06-11T00:49:43.167Z,232.33
2023-06-11T00:50:43.182Z,232.09
2023-06-11T00:51:43.194Z,232.46
2023-06-11T00:52:43.224Z,231.11
2023-06-11T00:53:43.225Z,232.34
2023-06-11T00:54:43.264Z,232.01
2023-06-11T00:55:43.259Z,232.47
2023-06-11T00:56:43.289Z,233.34
2023-06-11T00:57:43.285Z,232.93
2023-06-11T00:58:43.329Z,233.84
2023-06-11T00:59:43.315Z,234.33
2023-06-11T01:00:43.371Z,235.95
2023-06-11T01:01:43.414Z,235.91
2023-06-11T01:02:43.408Z,236.80
2023-06-11T01:03:43.368Z,236.82
2023-06-11T01:04:43.462Z,234.82
2023-06-11T01:05:43.435Z,234.49
2023-06-11T01:06:43.412Z,233.85
2023-06-11T01:07:43.427Z,233.40
2023-06-11T01:08:43.450Z,232.90
2023-06-11T01:09:43.468Z,234.47
2023-06-11T01:10:43.465Z,235.15
2023-06-11T01:11:43.468Z,235.47
2023-06-11T01:12:43.488Z,234.22
2023-06-11T01:13:43.502Z,234.25
2023-06-11T01:14:43.554Z,234.62
2023-06-11T01:15:43.542Z,235.54
2023-06-11T01:16:43.573Z,235.52
2023-06-11T01:17:43.641Z,236.05
2023-06-11T01:18:43.584Z,237.69
2023-06-11T01:19:43.605Z,236.51
2023-06-11T01:20:43.625Z,235.34
2023-06-11T01:21:43.624Z,235.98
2023-06-11T01:22:43.642Z,237.97
2023-06-11T01:23:43.691Z,239.63
2023-06-11T01:24:43.700Z,240.41
2023-06-11T01:25:43.677Z,241.68
2023-06-11T01:26:43.717Z,242.18
2023-06-11T01:27:43.718Z,242.71
2023-06-11T01:28:43.732Z,242.19
2023-06-11T01:29:43.775Z,241.47
2023-06-11T01:30:43.735Z,242.93
2023-06-11T01:31:43.881Z,243.71
2023-06-11T01:32:43.842Z,243.83
2023-06-11T01:33:43.791Z,243.99
2023-06-11T01:34:43.809Z,242.94
2023-06-11T01:35:43.812Z,242.74
2023-06-11T01:36:43.812Z,242.99
2023-06-11T01:37:43.840Z,241.36
2023-06-11T01:38:43.867Z,240.90
2023-06-11T01:39:43.850Z,241.27
2023-06-11T01:40:43.857Z,241.12
2023-06-11T01:41:43.876Z,241.22
2023-06-11T01:42:43.897Z,241.46
2023-06-11T01:43:43.878Z,240.55
2023-06-11T01:44:43.888Z,239.16
2023-06-11T01:45:43.925Z,241.12
2023-06-11T01:46:43.988Z,240.75
2023-06-11T01:47:43.954Z,239.44
2023-06-11T01:48:43.944Z,240.15
2023-06-11T01:49:43.942Z,241.30
2023-06-11T01:50:43.953Z,240.50
2023-06-11T01:51:43.968Z,243.10
2023-06-11T01:52:43.963Z,241.79
2023-06-11T01:53:44.013Z,240.90
2023-06-11T01:54:43.988Z,241.79
2023-06-11T01:55:44.101Z,241.44
2023-06-11T01:56:44.013Z,242.34
2023-06-11T01:57:44.006Z,242.81
2023-06-11T01:58:44.029Z,243.96
2023-06-11T01:59:44.028Z,245.57
2023-06-11T02:00:44.038Z,246.56
2023-06-11T02:01:44.140Z,247.12
2023-06-11T02:02:44.111Z,247.00
2023-06-11T02:03:44.168Z,247.88
2023-06-11T02:04:44.082Z,248.81
2023-06-11T02:05:44.094Z,249.01
2023-06-11T02:06:44.100Z,249.83
2023-06-11T02:07:44.118Z,248.55
2023-06-11T02:08:44.132Z,249.08
2023-06-11T02:09:44.139Z,248.94
2023-06-11T02:10:44.173Z,249.25
2023-06-11T02:11:44.155Z,249.60
2023-06-11T02:12:44.183Z,249.53
2023-06-11T02:13:44.190Z,248.45
2023-06-11T02:14:44.202Z,248.49
2023-06-11T02:15:44.224Z,247.87
2023-06-11T02:16:44.272Z,248.10
2023-06-11T02:17:44.278Z,249.45
2023-06-11T02:18:44.252Z,247.89
2023-06-11T02:19:44.259Z,248.76
2023-06-11T02:20:44.267Z,247.70
2023-06-11T02:21:44.314Z,247.97
2023-06-11T02:22:44.318Z,247.69
2023-06-11T02:23:44.359Z,247.19
2023-06-11T02:24:44.361Z,247.37
2023-06-11T02:25:44.366Z,246.48
2023-06-11T02:26:44.380Z,245.49
2023-06-11T02:27:44.383Z,246.92
2023-06-11T02:28:44.421Z,244.52
2023-06-11T02:29:44.433Z,245.17
2023-06-11T02:30:44.462Z,243.78
2023-06-11T02:31:44.480Z,244.13
2023-06-11T02:32:44.554Z,244.19
2023-06-11T02:33:44.478Z,241.46
2023-06-11T02:34:44.520Z,241.79
2023-06-11T02:35:44.546Z,241.96
2023-06-11T02:36:44.507Z,241.11
2023-06-11T02:37:44.541Z,240.05
2023-06-11T02:38:44.550Z,239.63
2023-06-11T02:39:44.560Z,240.59
2023-06-11T02:40:44.554Z,238.39
2023-06-11T02:41:44.570Z,236.14
2023-06-11T02:42:44.576Z,236.33
2023-06-11T02:43:44.619Z,237.15
2023-06-11T02:44:44.645Z,237.53
2023-06-11T02:45:44.649Z,237.38
2023-06-11T02:46:44.671Z,238.16
2023-06-11T02:47:44.681Z,239.50
2023-06-11T02:48:44.693Z,239.83
2023-06-11T02:49:44.692Z,240.44
2023-06-11T02:50:44.722Z,239.34
2023-06-11T02:51:44.727Z,239.31
2023-06-11T02:52:44.740Z,237.62
2023-06-11T02:53:44.762Z,237.84
2023-06-11T02:54:44.789Z,237.18
2023-06-11T02:55:44.770Z,238.88
2023-06-11T02:56:44.814Z,239.24
2023-06-11T02:57:44.813Z,239.42
2023-06-11T02:58:44.830Z,238.91
2023-06-11T02:59:44.842Z,237.62
2023-06-11T03:00:44.842Z,237.08
2023-06-11T03:01:44.940Z,239.40
2023-06-11T03:02:44.903Z,239.59
2023-06-11T03:03:44.931Z,239.67
2023-06-11T03:04:44.915Z,238.40
2023-06-11T03:05:44.925Z,238.75
2023-06-11T03:06:44.937Z,238.47
2023-06-11T03:07:44.953Z,239.57
2023-06-11T03:08:44.981Z,239.71
2023-06-11T03:09:44.972Z,240.67
2023-06-11T03:10:45.000Z,241.00
2023-06-11T03:11:45.037Z,241.40
2023-06-11T03:12:45.025Z,240.81
2023-06-11T03:13:45.035Z,241.39
2023-06-11T03:14:45.049Z,241.42
2023-06-11T03:15:45.087Z,242.20
2023-06-11T03:16:45.074Z,242.06
2023-06-11T03:17:45.119Z,241.88
2023-06-11T03:18:45.107Z,242.71
2023-06-11T03:19:45.112Z,243.22
2023-06-11T03:20:45.131Z,242.97
2023-06-11T03:21:45.159Z,243.59
2023-06-11T03:22:45.172Z,243.17
2023-06-11T03:23:45.220Z,243.76
2023-06-11T03:24:45.209Z,244.69
2023-06-11T03:25:45.244Z,246.00
2023-06-11T03:26:45.238Z,246.58
2023-06-11T03:27:45.255Z,245.53
2023-06-11T03:28:45.297Z,245.50
2023-06-11T03:29:45.314Z,244.03
2023-06-11T03:30:45.345Z,243.40
2023-06-11T03:31:45.378Z,243.91
2023-06-11T03:32:45.388Z,244.76
2023-06-11T03:33:45.391Z,244.72
2023-06-11T03:34:45.413Z,244.87
2023-06-11T03:35:45.431Z,245.30
2023-06-11T03:36:45.466Z,246.58
2023-06-11T03:37:45.476Z,247.74
2023-06-11T03:38:45.506Z,247.51
2023-06-11T03:39:45.520Z,246.63
2023-06-11T03:40:45.532Z,246.81
2023-06-11T03:41:45.562Z,247.34
2023-06-11T03:42:45.555Z,247.27
2023-06-11T03:43:45.591Z,248.35
2023-06-11T03:44:45.617Z,249.13
2023-06-11T03:45:45.648Z,248.60
2023-06-11T03:46:45.716Z,248.99
2023-06-11T03:47:45.712Z,248.11
2023-06-11T03:48:45.683Z,247.14
2023-06-11T03:49:45.724Z,245.84
2023-06-11T03:50:45.767Z,247.02
2023-06-11T03:51:45.749Z,246.72
2023-06-11T03:52:45.777Z,245.67
2023-06-11T03:53:45.803Z,246.86
2023-06-11T03:54:45.828Z,247.69
2023-06-11T03:55:45.851Z,247.01
2023-06-11T03:56:45.867Z,247.27
2023-06-11T03:57:45.884Z,246.09
2023-06-11T03:58:45.893Z,246.62
2023-06-11T03:59:45.930Z,247.09
2023-06-11T04:00:45.942Z,245.77
2023-06-11T04:01:46.006Z,247.42
2023-06-11T04:02:46.090Z,247.58
2023-06-11T04:03:46.049Z,246.65
2023-06-11T04:04:46.098Z,245.38
2023-06-11T04:05:46.069Z,246.22
2023-06-11T04:06:46.094Z,245.85
2023-06-11T04:07:46.133Z,245.75
2023-06-11T04:08:46.169Z,246.47
2023-06-11T04:09:46.194Z,246.07
2023-06-11T04:10:46.248Z,245.25
2023-06-11T04:11:46.251Z,244.78
2023-06-11T04:12:46.263Z,246.85
2023-06-11T04:13:46.306Z,246.44
2023-06-11T04:14:46.321Z,247.72
2023-06-11T04:15:46.373Z,246.66
2023-06-11T04:16:46.430Z,247.85
2023-06-11T04:17:46.464Z,247.32
2023-06-11T04:18:46.454Z,247.46
2023-06-11T04:19:46.486Z,248.51
2023-06-11T04:20:46.503Z,249.68
2023-06-11T04:21:46.529Z,249.26
2023-06-11T04:22:46.579Z,248.83
2023-06-11T04:23:46.645Z,248.85
2023-06-11T04:24:46.629Z,248.54
2023-06-11T04:25:46.635Z,248.48
2023-06-11T04:26:46.694Z,248.98
2023-06-11T04:27:46.687Z,249.98
2023-06-11T04:28:46.741Z,249.32
2023-06-11T04:29:46.757Z,247.84
2023-06-11T04:30:46.785Z,247.61
2023-06-11T04:31:46.914Z,247.29
2023-06-11T04:32:46.890Z,246.35
2023-06-11T04:33:46.861Z,246.19
2023-06-11T04:34:46.873Z,247.19
2023-06-11T04:35:46.903Z,245.72
2023-06-11T04:36:46.952Z,244.53
2023-06-11T04:37:46.979Z,245.32
2023-06-11T04:38:46.983Z,246.61
2023-06-11T04:39:47.009Z,244.78
2023-06-11T04:40:47.059Z,244.79
2023-06-11T04:41:47.073Z,244.53
2023-06-11T04:42:47.094Z,244.95
2023-06-11T04:43:47.112Z,242.91
2023-06-11T04:44:47.157Z,241.26
2023-06-11T04:45:47.171Z,240.86
2023-06-11T04:46:47.306Z,242.14
2023-06-11T04:47:47.284Z,244.05
2023-06-11T04:48:47.245Z,243.69
2023-06-11T04:49:47.269Z,244.09
2023-06-11T04:50:47.295Z,244.56
2023-06-11T04:51:47.301Z,244.90
2023-06-11T04:52:47.324Z,245.90
2023-06-11T04:53:47.363Z,247.74
2023-06-11T04:54:47.376Z,247.39
2023-06-11T04:55:47.410Z,245.61
2023-06-11T04:56:47.438Z,246.97
2023-06-11T04:57:47.448Z,247.97
2023-06-11T04:58:47.465Z,248.28
2023-06-11T04:59:47.510Z,247.92
2023-06-11T05:00:47.551Z,248.09
2023-06-11T05:01:47.763Z,249.11
2023-06-11T05:02:47.590Z,248.22
2023-06-11T05:03:49.166Z,248.32
2023-06-11T05:04:47.654Z,249.03
2023-06-11T05:05:47.719Z,248.84
2023-06-11T05:06:47.663Z,248.86
2023-06-11T05:07:47.680Z,248.93
2023-06-11T05:08:47.707Z,248.99
2023-06-11T05:09:47.744Z,247.97
2023-06-11T05:10:47.762Z,249.27
2023-06-11T05:11:47.786Z,248.99
2023-06-11T05:12:47.829Z,247.58
2023-06-11T05:13:47.837Z,246.48
2023-06-11T05:14:47.845Z,248.21
2023-06-11T05:15:47.866Z,247.68
2023-06-11T05:16:47.985Z,248.50
2023-06-11T05:17:48.964Z,247.73
2023-06-11T05:18:47.957Z,247.38
2023-06-11T05:19:47.986Z,248.40
2023-06-11T05:20:47.993Z,249.78
2023-06-11T05:21:48.021Z,250.00
2023-06-11T05:22:48.051Z,249.25
2023-06-11T05:23:48.092Z,247.71
2023-06-11T05:24:48.078Z,246.82
2023-06-11T05:25:48.115Z,245.98
2023-06-11T05:26:48.144Z,246.34
2023-06-11T05:27:48.164Z,246.51
2023-06-11T05:28:48.180Z,247.38
2023-06-11T05:29:48.210Z,248.92
2023-06-11T05:30:48.226Z,250.00
2023-06-11T05:31:48.280Z,249.08
2023-06-11T05:32:48.287Z,250.00
2023-06-11T05:33:48.328Z,249.38
2023-06-11T05:34:48.317Z,248.91
2023-06-11T05:35:48.320Z,247.09
2023-06-11T05:36:48.339Z,246.33
2023-06-11T05:37:48.356Z,246.90
2023-06-11T05:38:48.395Z,246.34
2023-06-11T05:39:48.443Z,245.86
2023-06-11T05:40:48.448Z,246.62
2023-06-11T05:41:48.468Z,245.68
2023-06-11T05:42:48.510Z,245.50
2023-06-11T05:43:48.520Z,244.89
2023-06-11T05:44:48.546Z,245.72
2023-06-11T05:45:48.598Z,247.17
2023-06-11T05:46:48.656Z,246.90
2023-06-11T05:47:48.706Z,248.29
2023-06-11T05:48:48.598Z,248.58
2023-06-11T05:49:48.629Z,250.00
2023-06-11T05:50:48.675Z,249.38
2023-06-11T05:51:48.651Z,248.10
2023-06-11T05:52:48.687Z,246.89
2023-06-11T05:53:48.690Z,246.54
2023-06-11T05:54:48.704Z,246.35
2023-06-11T05:55:48.730Z,245.19
2023-06-11T05:56:48.746Z,245.10
2023-06-11T05:57:48.739Z,245.27
2023-06-11T05:58:48.765Z,246.05
2023-06-11T05:59:48.815Z,245.70
2023-06-11T06:00:48.775Z,246.22
2023-06-11T06:01:48.782Z,247.33
2023-06-11T06:02:48.971Z,247.62
2023-06-11T06:03:48.893Z,248.48
2023-06-11T06:04:48.886Z,247.42
2023-06-11T06:05:48.841Z,246.22
2023-06-11T06:06:48.833Z,243.78
2023-06-11T06:07:48.844Z,241.21
2023-06-11T06:08:48.858Z,240.73
2023-06-11T06:09:48.853Z,238.89
2023-06-11T06:10:48.861Z,240.42
2023-06-11T06:11:48.860Z,244.07
2023-06-11T06:12:48.881Z,246.06
2023-06-11T06:13:48.859Z,248.32
2023-06-11T06:14:48.877Z,250.00
2023-06-11T06:15:48.948Z,250.00
2023-06-11T06:16:48.992Z,250.00
2023-06-11T06:17:48.914Z,249.77
2023-06-11T06:18:48.906Z,249.92
2023-06-11T06:19:48.897Z,249.87
2023-06-11T06:20:48.912Z,249.82
2023-06-11T06:21:48.926Z,249.35
2023-06-11T06:22:48.914Z,249.54
2023-06-11T06:23:48.967Z,249.02
2023-06-11T06:24:48.951Z,249.70
2023-06-11T06:25:48.976Z,249.43
2023-06-11T06:26:48.923Z,249.39
2023-06-11T06:27:48.929Z,248.75
2023-06-11T06:28:48.940Z,247.73
2023-06-11T06:29:48.923Z,247.86
2023-06-11T06:30:48.946Z,247.60
2023-06-11T06:31:48.958Z,247.39
2023-06-11T06:32:48.991Z,247.19
2023-06-11T06:33:48.916Z,246.66
2023-06-11T06:34:48.920Z,246.49
2023-06-11T06:35:48.928Z,246.58
2023-06-11T06:36:48.945Z,246.20
2023-06-11T06:37:48.929Z,245.53
2023-06-11T06:38:48.943Z,244.48
2023-06-11T06:39:48.948Z,245.46
2023-06-11T06:40:48.946Z,245.20
2023-06-11T06:41:48.951Z,244.63
2023-06-11T06:42:48.943Z,244.62
2023-06-11T06:43:50.295Z,244.36
2023-06-11T06:44:49.016Z,244.50
2023-06-11T06:45:49.023Z,243.82
2023-06-11T06:46:49.020Z,243.41
2023-06-11T06:47:49.133Z,243.04
2023-06-11T06:48:49.155Z,243.15
2023-06-11T06:49:49.012Z,242.24
2023-06-11T06:50:49.003Z,242.02
2023-06-11T06:51:48.994Z,240.64
2023-06-11T06:52:49.012Z,240.75
2023-06-11T06:53:49.004Z,239.69
2023-06-11T06:54:49.012Z,239.05
2023-06-11T06:55:51.360Z,238.38
2023-06-11T06:56:48.977Z,238.48
2023-06-11T06:57:48.970Z,238.63
2023-06-11T06:58:48.976Z,238.73
2023-06-11T06:59:48.964Z,238.35
2023-06-11T07:00:49.032Z,237.57
2023-06-11T07:01:49.090Z,237.59
2023-06-11T07:02:48.994Z,237.42
2023-06-11T07:03:48.946Z,235.66
2023-06-11T07:04:48.948Z,236.04
2023-06-11T07:05:48.964Z,235.99
2023-06-11T07:06:48.921Z,235.60
2023-06-11T07:07:48.917Z,235.20
2023-06-11T07:08:48.913Z,234.98
2023-06-11T07:09:48.885Z,234.08
2023-06-11T07:10:48.897Z,234.25
2023-06-11T07:11:48.887Z,234.23
2023-06-11T07:12:48.876Z,234.01
2023-06-11T07:13:48.853Z,232.71
2023-06-11T07:14:48.889Z,232.86
2023-06-11T07:15:48.957Z,233.34
2023-06-11T07:16:48.850Z,231.45
2023-06-11T07:17:48.841Z,233.12
2023-06-11T07:18:48.841Z,231.29
2023-06-11T07:19:48.920Z,232.17
2023-06-11T07:20:48.815Z,231.39
2023-06-11T07:21:48.817Z,229.81
2023-06-11T07:22:48.808Z,231.35
2023-06-11T07:23:48.885Z,231.02
2023-06-11T07:24:48.796Z,229.93
2023-06-11T07:25:48.805Z,229.76
2023-06-11T07:26:48.773Z,229.41
2023-06-11T07:27:48.769Z,229.48
2023-06-11T07:28:48.765Z,229.39
2023-06-11T07:29:48.746Z,229.08
2023-06-11T07:30:48.754Z,229.39
2023-06-11T07:31:48.889Z,228.84
2023-06-11T07:32:48.857Z,228.28
2023-06-11T07:33:48.716Z,228.49
2023-06-11T07:34:48.752Z,228.22
2023-06-11T07:35:48.706Z,228.41
2023-06-11T07:36:48.716Z,228.59
2023-06-11T07:37:48.713Z,228.83
2023-06-11T07:38:48.715Z,227.10
2023-06-11T07:39:49.381Z,226.89
2023-06-11T07:40:48.666Z,226.79
2023-06-11T07:41:48.679Z,226.13
2023-06-11T07:42:48.658Z,225.86
2023-06-11T07:43:48.653Z,226.19
2023-06-11T07:44:48.648Z,227.10
2023-06-11T07:45:48.647Z,225.43
2023-06-11T07:46:48.706Z,225.45
2023-06-11T07:47:48.749Z,225.38
2023-06-11T07:48:48.628Z,225.56
2023-06-11T07:49:48.654Z,223.28
2023-06-11T07:50:48.597Z,224.52
2023-06-11T07:51:48.592Z,224.75
2023-06-11T07:52:48.610Z,224.17
2023-06-11T07:53:48.591Z,225.86
2023-06-11T07:54:48.570Z,225.22
2023-06-11T07:55:48.569Z,225.18
2023-06-11T07:56:48.575Z,225.10
2023-06-11T07:57:48.564Z,225.20
2023-06-11T07:58:48.573Z,224.93
2023-06-11T07:59:48.537Z,224.51
2023-06-11T08:00:48.534Z,224.05
2023-06-11T08:01:48.639Z,224.67
2023-06-11T08:02:50.169Z,223.33
2023-06-11T08:03:48.524Z,224.85
2023-06-11T08:04:48.498Z,222.84
2023-06-11T08:05:48.571Z,223.87
2023-06-11T08:06:48.485Z,224.02
2023-06-11T08:07:48.497Z,224.52
2023-06-11T08:08:48.475Z,224.40
2023-06-11T08:09:48.483Z,224.83
2023-06-11T08:10:48.481Z,224.22
2023-06-11T08:11:48.469Z,223.54
2023-06-11T08:12:48.483Z,222.78
2023-06-11T08:13:48.459Z,223.70
2023-06-11T08:14:48.445Z,224.19
2023-06-11T08:15:48.432Z,222.58
2023-06-11T08:16:48.435Z,221.64
2023-06-11T08:17:48.441Z,221.91
2023-06-11T08:18:48.424Z,221.93
2023-06-11T08:19:48.415Z,222.20
2023-06-11T08:20:48.418Z,222.60
2023-06-11T08:21:48.431Z,222.90
2023-06-11T08:22:48.396Z,220.46
2023-06-11T08:23:48.413Z,221.92
2023-06-11T08:24:48.366Z,222.30
2023-06-11T08:25:48.380Z,220.75
2023-06-11T08:26:48.374Z,223.49
2023-06-11T08:27:48.362Z,222.73
2023-06-11T08:28:48.354Z,223.29
2023-06-11T08:29:48.339Z,223.44
2023-06-11T08:30:48.374Z,221.90
2023-06-11T08:31:48.371Z,221.39
2023-06-11T08:32:48.358Z,220.84
2023-06-11T08:33:48.327Z,223.31
2023-06-11T08:34:48.328Z,222.33
2023-06-11T08:35:48.321Z,221.37
2023-06-11T08:36:48.314Z,221.77
2023-06-11T08:37:48.289Z,221.09
2023-06-11T08:38:48.315Z,222.25
2023-06-11T08:39:48.293Z,222.65
2023-06-11T08:40:48.277Z,222.34
2023-06-11T08:41:48.285Z,223.17
2023-06-11T08:42:48.313Z,222.47
2023-06-11T08:43:48.270Z,222.65
2023-06-11T08:44:48.262Z,222.70
2023-06-11T08:45:48.257Z,221.51
2023-06-11T08:46:48.401Z,221.47
2023-06-11T08:47:48.247Z,221.07
2023-06-11T08:48:48.232Z,221.85
2023-06-11T08:49:48.225Z,221.49
2023-06-11T08:50:48.212Z,222.00
2023-06-11T08:51:48.226Z,221.75
2023-06-11T08:52:48.201Z,219.51
2023-06-11T08:53:48.192Z,220.97
2023-06-11T08:54:48.177Z,221.43
2023-06-11T08:55:48.182Z,221.45
2023-06-11T08:56:48.167Z,218.45
2023-06-11T08:57:48.169Z,218.87
2023-06-11T08:58:48.151Z,219.48
2023-06-11T08:59:48.150Z,219.15
2023-06-11T09:00:49.096Z,219.30
2023-06-11T09:01:48.177Z,215.79
2023-06-11T09:02:48.171Z,217.12
2023-06-11T09:03:48.170Z,217.45
2023-06-11T09:04:48.125Z,217.84
2023-06-11T09:05:48.106Z,217.48
2023-06-11T09:06:48.094Z,217.18
2023-06-11T09:07:48.084Z,216.41
2023-06-11T09:08:48.094Z,215.20
2023-06-11T09:09:48.089Z,216.55
2023-06-11T09:10:48.072Z,216.42
2023-06-11T09:11:48.062Z,214.65
2023-06-11T09:12:48.075Z,215.80
2023-06-11T09:13:48.052Z,215.13
2023-06-11T09:14:48.036Z,213.00
2023-06-11T09:15:48.091Z,212.81
2023-06-11T09:16:48.130Z,212.08
2023-06-11T09:17:48.148Z,211.90
2023-06-11T09:18:48.011Z,211.19
2023-06-11T09:19:48.020Z,211.48
2023-06-11T09:20:48.007Z,211.07
2023-06-11T09:21:48.003Z,211.72
2023-06-11T09:22:48.008Z,210.91
2023-06-11T09:23:48.039Z,211.03
2023-06-11T09:24:47.982Z,209.56
2023-06-11T09:25:47.967Z,210.96
2023-06-11T09:26:47.994Z,210.06
2023-06-11T09:27:48.129Z,210.43
2023-06-11T09:28:50.163Z,210.09
2023-06-11T09:29:48.024Z,211.17
2023-06-11T09:30:48.080Z,211.17
2023-06-11T09:31:48.052Z,210.29
2023-06-11T09:32:48.193Z,208.33
2023-06-11T09:33:48.050Z,208.24
2023-06-11T09:34:48.073Z,206.76
2023-06-11T09:35:48.102Z,208.22
2023-06-11T09:36:48.140Z,208.93
2023-06-11T09:37:48.139Z,207.75
2023-06-11T09:38:48.145Z,205.22
2023-06-11T09:39:48.163Z,203.99
2023-06-11T09:40:48.165Z,204.55
2023-06-11T09:41:48.177Z,205.41
2023-06-11T09:42:48.209Z,204.26
2023-06-11T09:43:48.234Z,205.46
2023-06-11T09:44:48.242Z,203.67
2023-06-11T09:45:48.333Z,203.86
2023-06-11T09:46:48.272Z,204.77
2023-06-11T09:47:48.374Z,203.76
2023-06-11T09:48:48.321Z,203.55
2023-06-11T09:49:48.349Z,204.26
2023-06-11T09:50:48.347Z,202.35
2023-06-11T09:51:48.341Z,204.72
2023-06-11T09:52:48.373Z,204.05
2023-06-11T09:53:48.343Z,201.42
2023-06-11T09:54:48.353Z,200.48
2023-06-11T09:55:57.039Z,201.46
2023-06-11T09:56:49.369Z,201.57
2023-06-11T09:57:48.364Z,201.72
2023-06-11T09:58:48.370Z,201.58
2023-06-11T09:59:48.346Z,200.69
2023-06-11T10:00:48.353Z,201.26
2023-06-11T10:01:48.584Z,200.73
2023-06-11T10:02:48.358Z,201.25
2023-06-11T10:03:48.353Z,200.89
2023-06-11T10:04:48.317Z,200.60
2023-06-11T10:05:48.302Z,201.10
2023-06-11T10:06:48.281Z,200.46
2023-06-11T10:07:48.276Z,201.35
2023-06-11T10:08:48.282Z,199.84
2023-06-11T10:09:48.256Z,200.11
2023-06-11T10:10:48.274Z,200.13
2023-06-11T10:11:48.270Z,200.48
2023-06-11T10:12:48.239Z,201.77
2023-06-11T10:13:48.248Z,201.08
2023-06-11T10:14:48.221Z,201.60
2023-06-11T10:15:48.243Z,202.20
2023-06-11T10:16:48.218Z,202.55
2023-06-11T10:17:48.292Z,200.48
2023-06-11T10:18:48.192Z,201.44
2023-06-11T10:19:48.192Z,199.97
2023-06-11T10:20:48.189Z,201.53
2023-06-11T10:21:48.184Z,201.16
2023-06-11T10:22:48.169Z,201.03
2023-06-11T10:23:48.188Z,201.51
2023-06-11T10:24:48.170Z,200.93
2023-06-11T10:25:48.170Z,199.43
2023-06-11T10:26:48.201Z,200.98
2023-06-11T10:27:48.132Z,200.93
2023-06-11T10:28:48.136Z,199.40
2023-06-11T10:29:48.125Z,200.44
2023-06-11T10:30:48.123Z,199.92
2023-06-11T10:31:48.110Z,201.08
2023-06-11T10:32:48.143Z,198.99
2023-06-11T10:33:48.127Z,197.61
2023-06-11T10:34:48.219Z,199.23
2023-06-11T10:35:48.100Z,200.14
2023-06-11T10:36:48.073Z,201.10
2023-06-11T10:37:48.075Z,201.54
2023-06-11T10:38:48.076Z,200.86
2023-06-11T10:39:48.052Z,199.31
2023-06-11T10:40:48.054Z,200.66
2023-06-11T10:41:48.044Z,199.50
2023-06-11T10:42:48.047Z,200.63
2023-06-11T10:43:48.032Z,199.91
2023-06-11T10:44:48.033Z,200.71
2023-06-11T10:45:49.972Z,200.45
2023-06-11T10:46:48.062Z,199.41
2023-06-11T10:47:48.069Z,198.91
2023-06-11T10:48:48.036Z,199.81
2023-06-11T10:49:48.018Z,200.26
2023-06-11T10:50:48.029Z,197.56
2023-06-11T10:51:47.999Z,195.95
2023-06-11T10:52:48.026Z,194.11
2023-06-11T10:53:48.015Z,194.34
2023-06-11T10:54:47.998Z,195.73
2023-06-11T10:55:48.014Z,193.51
2023-06-11T10:56:47.991Z,196.31
2023-06-11T10:57:48.019Z,197.92
2023-06-11T10:58:48.004Z,196.24
2023-06-11T10:59:48.029Z,195.90
2023-06-11T11:00:48.071Z,195.40
2023-06-11T11:01:48.050Z,197.17
2023-06-11T11:02:48.048Z,195.90
2023-06-11T11:03:48.174Z,194.98
2023-06-11T11:04:47.972Z,195.29
2023-06-11T11:05:47.996Z,193.94
2023-06-11T11:06:47.987Z,195.69
2023-06-11T11:07:47.984Z,194.23
2023-06-11T11:08:47.994Z,194.52
2023-06-11T11:09:48.007Z,194.73
2023-06-11T11:10:48.004Z,191.43
2023-06-11T11:11:48.033Z,191.24
2023-06-11T11:12:48.066Z,191.46
2023-06-11T11:13:48.034Z,192.28
2023-06-11T11:14:48.051Z,191.30
2023-06-11T11:15:48.042Z,192.14
2023-06-11T11:16:48.082Z,189.21
2023-06-11T11:17:48.111Z,190.13
2023-06-11T11:18:48.068Z,190.75
2023-06-11T11:19:48.082Z,187.43
2023-06-11T11:20:48.069Z,186.44
2023-06-11T11:21:48.076Z,184.03
2023-06-11T11:22:48.074Z,184.03
2023-06-11T11:23:48.120Z,181.72
2023-06-11T11:24:48.099Z,178.66
2023-06-11T11:25:48.099Z,175.94
2023-06-11T11:26:48.098Z,174.52
2023-06-11T11:27:48.116Z,173.94
2023-06-11T11:28:48.091Z,175.02
2023-06-11T11:29:48.102Z,174.75
2023-06-11T11:30:48.120Z,174.33
2023-06-11T11:31:48.139Z,172.32
2023-06-11T11:32:48.169Z,169.67
2023-06-11T11:33:48.104Z,167.94
2023-06-11T11:34:48.119Z,166.55
2023-06-11T11:35:48.109Z,165.14
2023-06-11T11:36:48.099Z,161.04
2023-06-11T11:37:48.145Z,158.91
2023-06-11T11:38:48.112Z,158.26
2023-06-11T11:39:48.141Z,158.60
2023-06-11T11:40:48.141Z,154.93
2023-06-11T11:41:48.137Z,153.30
2023-06-11T11:42:48.135Z,148.01
2023-06-11T11:43:48.142Z,142.78
2023-06-11T11:44:48.143Z,134.08
2023-06-11T11:45:48.201Z,134.43
2023-06-11T11:46:48.198Z,136.81
2023-06-11T11:47:48.177Z,135.65
2023-06-11T11:48:48.147Z,133.62
2023-06-11T11:49:48.142Z,132.00
2023-06-11T11:50:48.144Z,133.10
2023-06-11T11:51:48.145Z,132.83
2023-06-11T11:52:48.116Z,129.98
2023-06-11T11:53:48.114Z,128.21
2023-06-11T11:54:48.101Z,124.79
2023-06-11T11:56:04.286Z,128.46
2023-06-11T11:56:49.108Z,128.60
2023-06-11T11:57:48.077Z,129.71
2023-06-11T11:58:48.066Z,129.95
2023-06-11T11:59:48.059Z,129.91
2023-06-11T12:00:48.079Z,129.53
2023-06-11T12:01:48.061Z,130.01
2023-06-11T12:02:48.184Z,120.49
2023-06-11T12:03:48.183Z,112.38
2023-06-11T12:04:49.148Z,114.88
2023-06-11T12:05:48.057Z,113.81
2023-06-11T12:06:48.008Z,111.86
2023-06-11T12:07:48.016Z,108.32
2023-06-11T12:08:48.024Z,106.45
2023-06-11T12:09:48.010Z,107.74
2023-06-11T12:10:48.020Z,99.06
2023-06-11T12:12:04.033Z,93.27
2023-06-11T12:12:48.971Z,77.11
2023-06-11T12:13:47.964Z,62.93
2023-06-11T12:14:47.954Z,64.29
2023-06-11T12:15:47.963Z,62.26
2023-06-11T12:16:47.968Z,57.89
2023-06-11T12:17:47.998Z,47.86
2023-06-11T12:18:47.982Z,56.22
2023-06-11T12:19:47.921Z,58.12
2023-06-11T12:20:47.996Z,58.37
2023-06-11T12:21:50.017Z,53.28
2023-06-11T12:22:47.901Z,47.98
2023-06-11T12:23:47.915Z,59.33
2023-06-11T12:24:47.909Z,37.75
2023-06-11T12:25:47.880Z,31.12
2023-06-11T12:26:47.887Z,51.08
2023-06-11T12:27:47.860Z,47.96
2023-06-11T12:28:47.882Z,45.53
2023-06-11T12:29:47.850Z,60.89